Time;durP1;ratioP1;P1;durP2;ratioP2;P2;SDS_P1;SDS_P2;PMS_P1;PMS_P2;Temp;Humidity;BMP_temperature;BMP_pressure;BME280_temperature;BME280_humidity;BME280_pressure;Samples;Min_cycle;Max_cycle;Signal;HPM_P1;HPM_P2
2023/01/02 00:01:46;;;;;;;;;;;;;;;3.20;96.87;98357.63;4952034;28;20465;-72
2023/01/02 00:04:12;;;;;;;;;;;;;;;3.07;96.08;98367.03;4939034;28;19929;-72
2023/01/02 00:06:38;;;;;;;;;;;;;;;2.95;95.90;98371.78;4955266;28;20663;-72
2023/01/02 00:09:04;;;;;;;;;;;;;;;2.84;95.31;98373.63;4942786;28;19931;-72
2023/01/02 00:11:30;;;;;;;;;;;;;;;2.77;94.87;98400.00;4922876;29;19931;-72
2023/01/02 00:13:57;;;;;;;;;;;;;;;2.72;94.59;98413.47;4928151;29;19938;-72
2023/01/02 00:16:23;;;;;;;;;;;;;;;2.71;94.36;98401.84;4931706;28;19930;-67
2023/01/02 00:18:49;;;;;;;;;;;;;;;2.69;94.05;98407.50;4948244;28;19957;-67
2023/01/02 00:21:15;;;;;;;;;;;;;;;2.66;93.52;98412.59;4929300;28;19931;-71
2023/01/02 00:23:41;;;;;;;;;;;;;;;2.62;92.92;98438.47;4925711;29;19935;-71
2023/01/02 00:26:07;;;;;;;;;;;;;;;2.59;92.79;98441.69;4929059;29;20025;-71
2023/01/02 00:28:34;;;;;;;;;;;;;;;2.57;92.44;98449.22;4926228;29;20050;-72
2023/01/02 00:31:06;;;;;;;;;;;;;;;2.56;92.57;98443.00;4928952;29;19962;-71
2023/01/02 00:33:31;;;;;;;;;;;;;;;2.54;92.81;98445.97;4925304;29;19938;-72
2023/01/02 00:35:57;;;;;;;;;;;;;;;2.53;92.93;98462.41;4929088;29;20303;-71
2023/01/02 00:38:23;;;;;;;;;;;;;;;2.52;93.21;98458.91;4930123;29;19937;-71
2023/01/02 00:40:48;;;;;;;;;;;;;;;2.51;93.38;98465.34;4926715;29;20457;-71
2023/01/02 00:43:15;;;;;;;;;;;;;;;2.50;93.39;98479.94;4928320;29;20037;-67
2023/01/02 00:45:42;;;;;;;;;;;;;;;2.51;93.36;98496.94;4930639;29;19945;-67
2023/01/02 00:48:09;;;;;;;;;;;;;;;2.51;93.36;98492.34;4927489;29;19937;-67
2023/01/02 00:50:35;;;;;;;;;;;;;;;2.45;93.14;98495.25;4926604;29;19931;-68
2023/01/02 00:53:00;;;;;;;;;;;;;;;2.38;92.48;98520.53;4924290;29;19938;-67
2023/01/02 00:55:26;;;;;;;;;;;;;;;2.30;91.59;98531.75;4908185;29;20017;-67
2023/01/02 00:57:52;;;;;;;;;;;;;;;2.28;91.35;98527.72;4926422;29;19954;-67
2023/01/02 01:00:18;;;;;;;;;;;;;;;2.31;91.11;98529.91;4944372;28;19962;-67
2023/01/02 01:02:43;;;;;;;;;;;;;;;2.34;90.79;98537.47;4945530;28;19966;-66
2023/01/02 01:05:11;;;;;;;;;;;;;;;2.36;90.69;98548.84;4946180;28;19989;-66
2023/01/02 01:07:36;;;;;;;;;;;;;;;2.39;90.57;98549.16;4946909;28;19962;-66
2023/01/02 01:10:02;;;;;;;;;;;;;;;2.44;90.46;98561.91;4944622;28;20009;-66
2023/01/02 01:12:30;;;;;;;;;;;;;;;2.47;90.03;98553.28;4948067;28;19931;-66
2023/01/02 01:14:55;;;;;;;;;;;;;;;2.44;89.89;98550.28;4947466;28;19930;-66
2023/01/02 01:17:21;;;;;;;;;;;;;;;2.42;89.47;98569.44;4946489;28;19986;-66
2023/01/02 01:19:47;;;;;;;;;;;;;;;2.40;89.25;98593.94;4942685;28;19934;-67
2023/01/02 01:22:14;;;;;;;;;;;;;;;2.39;88.82;98592.31;4944239;28;20402;-66
2023/01/02 01:24:39;;;;;;;;;;;;;;;2.40;89.03;98587.72;4945686;28;19930;-66
2023/01/02 01:27:05;;;;;;;;;;;;;;;2.40;88.92;98596.66;4945749;28;20263;-66
2023/01/02 01:29:31;;;;;;;;;;;;;;;2.39;88.69;98599.59;4946163;28;19931;-66
2023/01/02 01:31:57;;;;;;;;;;;;;;;2.35;88.03;98599.28;4945712;28;19934;-68
2023/01/02 01:34:22;;;;;;;;;;;;;;;2.33;88.20;98595.19;4946998;28;19937;-67
2023/01/02 01:36:48;;;;;;;;;;;;;;;2.31;87.90;98591.94;4946284;28;19930;-67
2023/01/02 01:39:15;;;;;;;;;;;;;;;2.26;87.66;98598.06;4950123;28;19931;-67
2023/01/02 01:41:41;;;;;;;;;;;;;;;2.19;87.44;98598.25;4948249;28;19930;-66
2023/01/02 01:44:41;;;;;;;;;;;;;;;2.17;87.62;98624.66;4946881;28;19938;-67
2023/01/02 01:47:13;;;;;;;;;;;;;;;2.17;87.45;98626.53;4907614;29;20037;-67
2023/01/02 01:49:39;;;;;;;;;;;;;;;2.20;87.59;98637.66;4910132;29;20378;-67
2023/01/02 01:52:07;;;;;;;;;;;;;;;2.22;87.33;98659.00;4908533;29;20046;-67
2023/01/02 01:54:36;;;;;;;;;;;;;;;2.20;87.12;98671.91;4876319;29;20030;-67
2023/01/02 01:57:03;;;;;;;;;;;;;;;2.10;nan;98665.28;4909234;29;19942;-67
2023/01/02 01:59:29;;;;;;;;;;;;;;;2.06;86.45;98672.25;4909300;29;19931;-67
2023/01/02 02:01:56;;;;;;;;;;;;;;;2.09;86.18;98673.63;4893284;29;19938;-68
2023/01/02 02:04:22;;;;;;;;;;;;;;;2.06;85.99;98680.34;4891281;29;20037;-67
2023/01/02 02:06:49;;;;;;;;;;;;;;;2.00;86.05;98684.00;4908498;29;19931;-66
2023/01/02 02:09:16;;;;;;;;;;;;;;;1.98;86.05;98676.19;4909274;29;19938;-67
2023/01/02 02:11:44;;;;;;;;;;;;;;;1.92;85.55;98682.53;4909644;29;20355;-67
2023/01/02 02:14:09;;;;;;;;;;;;;;;1.90;85.81;98686.56;4891748;29;19974;-67
2023/01/02 02:16:38;;;;;;;;;;;;;;;1.89;85.76;98712.69;4894947;29;19962;-67
2023/01/02 02:19:11;;;;;;;;;;;;;;;1.87;85.60;98711.28;4931552;29;19930;-67
2023/01/02 02:21:47;;;;;;;;;;;;;;;1.79;85.70;98723.28;4949208;28;19934;-66
2023/01/02 02:24:32;;;;;;;;;;;;;;;1.82;85.87;98728.22;4945986;28;19931;-68
2023/01/02 02:27:03;;;;;;;;;;;;;;;1.79;85.74;98721.41;4948793;28;19930;-67
2023/01/02 02:29:38;;;;;;;;;;;;;;;1.74;85.39;98744.78;4950590;28;19930;-67
2023/01/02 02:32:09;;;;;;;;;;;;;;;1.68;85.18;98744.69;4950105;28;19931;-66
2023/01/02 02:34:38;;;;;;;;;;;;;;;1.72;85.18;98745.03;4945291;28;20354;-66
2023/01/02 02:37:08;;;;;;;;;;;;;;;1.76;84.70;98767.72;4945733;28;19931;-66
2023/01/02 02:39:38;;;;;;;;;;;;;;;1.77;84.68;98784.72;4934500;29;19930;-67
2023/01/02 02:42:11;;;;;;;;;;;;;;;1.73;84.33;98776.31;4930968;29;20292;-66
2023/01/02 02:44:44;;;;;;;;;;;;;;;1.75;84.17;98767.97;4948992;28;19941;-66
2023/01/02 02:47:13;;;;;;;;;;;;;;;1.76;84.29;98775.00;4945668;28;20323;-66
2023/01/02 02:49:43;;;;;;;;;;;;;;;1.75;83.91;98778.75;4929833;28;20362;-66
2023/01/02 02:52:13;;;;;;;;;;;;;;;1.75;83.97;98776.88;4948559;28;20326;-66
2023/01/02 02:54:41;;;;;;;;;;;;;;;1.80;83.11;98805.81;4948077;28;20315;-66
2023/01/02 02:57:08;;;;;;;;;;;;;;;1.74;82.52;98814.84;4937376;28;19985;-67
2023/01/02 02:59:35;;;;;;;;;;;;;;;1.73;82.27;98795.19;4928426;29;19931;-66
2023/01/02 03:02:01;;;;;;;;;;;;;;;1.75;81.36;98822.69;4930677;29;19930;-66
2023/01/02 03:04:28;;;;;;;;;;;;;;;1.67;80.95;98829.28;4930534;29;19939;-66
2023/01/02 03:07:00;;;;;;;;;;;;;;;1.60;81.52;98833.19;4932619;29;19935;-66
2023/01/02 03:09:32;;;;;;;;;;;;;;;1.52;81.66;98827.09;4927953;29;19931;-66
2023/01/02 03:12:05;;;;;;;;;;;;;;;1.46;81.36;98838.84;4927993;29;19939;-66
2023/01/02 03:14:37;;;;;;;;;;;;;;;1.42;81.68;98853.84;4929039;29;19941;-66
2023/01/02 03:17:06;;;;;;;;;;;;;;;1.36;81.20;98847.53;4928423;29;20028;-66
2023/01/02 03:19:36;;;;;;;;;;;;;;;1.27;81.83;98863.25;4946640;28;20430;-66
2023/01/02 03:22:05;;;;;;;;;;;;;;;1.12;82.59;98863.72;4945286;28;19937;-66
2023/01/02 03:24:32;;;;;;;;;;;;;;;1.05;83.16;98872.97;4947329;28;19930;-66
2023/01/02 03:27:03;;;;;;;;;;;;;;;1.04;82.76;98882.09;4945869;28;19993;-66
2023/01/02 03:29:32;;;;;;;;;;;;;;;1.08;82.40;98889.50;4942580;28;20032;-66
2023/01/02 03:32:00;;;;;;;;;;;;;;;1.03;82.72;98899.31;4949151;28;19930;-66
2023/01/02 03:34:29;;;;;;;;;;;;;;;0.97;82.79;98896.50;4946946;28;20037;-67
2023/01/02 03:36:57;;;;;;;;;;;;;;;0.90;82.83;98903.88;4946084;28;19931;-66
2023/01/02 03:39:25;;;;;;;;;;;;;;;0.84;83.05;98935.22;4946836;28;19935;-68
2023/01/02 03:41:55;;;;;;;;;;;;;;;0.76;83.10;98937.44;4947467;28;19938;-67
2023/01/02 03:44:21;;;;;;;;;;;;;;;0.72;83.67;98939.78;4945026;28;19973;-66
2023/01/02 03:46:50;;;;;;;;;;;;;;;0.72;83.78;98936.25;4939830;28;19934;-66
2023/01/02 03:49:20;;;;;;;;;;;;;;;0.69;83.75;98943.75;4934688;28;19934;-66
2023/01/02 03:51:45;;;;;;;;;;;;;;;0.68;83.83;98946.66;4927789;29;19978;-66
2023/01/02 03:54:13;;;;;;;;;;;;;;;0.65;84.00;98968.66;4928600;29;19934;-66
2023/01/02 03:56:45;;;;;;;;;;;;;;;0.52;83.95;98958.91;4930055;28;19942;-65
2023/01/02 03:59:14;;;;;;;;;;;;;;;0.46;84.07;98976.78;4927584;29;19939;-66
2023/01/02 04:01:43;;;;;;;;;;;;;;;0.38;84.30;98950.19;4928570;29;19981;-66
2023/01/02 04:04:12;;;;;;;;;;;;;;;0.33;84.11;98967.03;4927249;29;19930;-65
2023/01/02 04:06:42;;;;;;;;;;;;;;;0.26;84.35;98977.88;4926352;29;19986;-66
2023/01/02 04:09:09;;;;;;;;;;;;;;;0.20;84.25;98989.53;4929766;29;19934;-66
2023/01/02 04:11:38;;;;;;;;;;;;;;;0.15;84.52;98984.03;4929535;29;19985;-66
2023/01/02 04:14:09;;;;;;;;;;;;;;;0.07;84.48;98974.41;4928914;29;19953;-66
2023/01/02 04:16:35;;;;;;;;;;;;;;;0.02;84.84;99000.31;4928810;29;19930;-66
2023/01/02 04:19:04;;;;;;;;;;;;;;;-0.04;84.57;99012.78;4926025;29;20314;-65
2023/01/02 04:21:33;;;;;;;;;;;;;;;-0.09;84.77;99002.69;4930061;29;19931;-66
2023/01/02 04:24:02;;;;;;;;;;;;;;;-0.18;84.85;99002.19;4928407;29;19935;-66
2023/01/02 04:26:31;;;;;;;;;;;;;;;-0.19;85.43;99010.47;4929552;29;19937;-66
2023/01/02 04:28:58;;;;;;;;;;;;;;;-0.26;85.42;99001.66;4932543;28;19937;-66
2023/01/02 04:31:27;;;;;;;;;;;;;;;-0.25;85.32;99003.28;4927408;29;19937;-66
2023/01/02 04:33:54;;;;;;;;;;;;;;;-0.32;85.15;99000.69;4948006;28;19931;-65
2023/01/02 04:36:21;;;;;;;;;;;;;;;-0.35;84.97;99003.81;4947861;28;19931;-65
2023/01/02 04:38:47;;;;;;;;;;;;;;;-0.40;85.20;99009.84;4944631;28;19931;-65
2023/01/02 04:41:14;;;;;;;;;;;;;;;-0.44;85.75;99012.19;4946115;28;20390;-65
2023/01/02 04:43:40;;;;;;;;;;;;;;;-0.45;85.81;99023.13;4939074;28;20032;-65
2023/01/02 04:46:07;;;;;;;;;;;;;;;-0.46;85.54;99019.63;4933617;29;20037;-66
2023/01/02 04:48:33;;;;;;;;;;;;;;;-0.48;85.90;99037.81;4926785;29;19930;-66
2023/01/02 04:50:59;;;;;;;;;;;;;;;-0.49;85.63;99019.25;4929833;29;20293;-66
2023/01/02 04:53:24;;;;;;;;;;;;;;;-0.46;85.73;99053.72;4915332;29;19931;-66
2023/01/02 04:55:54;;;;;;;;;;;;;;;-0.51;85.61;99053.56;4924913;29;20054;-67
2023/01/02 04:58:19;;;;;;;;;;;;;;;-0.54;85.76;99059.38;4925744;29;20383;-66
2023/01/02 05:00:45;;;;;;;;;;;;;;;-0.57;85.96;99068.69;4924846;29;19962;-66
2023/01/02 05:03:13;;;;;;;;;;;;;;;-0.61;86.08;99070.19;4928407;28;19931;-66
2023/01/02 05:05:38;;;;;;;;;;;;;;;-0.66;86.60;99064.63;4928897;29;20406;-66
2023/01/02 05:08:04;;;;;;;;;;;;;;;-0.64;86.53;99067.91;4930662;29;19978;-66
2023/01/02 05:10:30;;;;;;;;;;;;;;;-0.62;86.10;99092.72;4931013;29;19937;-66
2023/01/02 05:12:57;;;;;;;;;;;;;;;-0.66;85.84;99083.44;4932981;29;19931;-66
2023/01/02 05:15:23;;;;;;;;;;;;;;;-0.77;86.30;99093.84;4931978;29;19930;-66
2023/01/02 05:17:49;;;;;;;;;;;;;;;-0.84;86.63;99093.06;4929881;29;19931;-66
2023/01/02 05:20:16;;;;;;;;;;;;;;;-0.83;86.45;99097.38;4930912;29;19931;-66
2023/01/02 05:25:30;;;;;;;;;;;;;;;-0.88;86.37;99140.97;4934059;29;19994;-66
2023/01/02 05:27:56;;;;;;;;;;;;;;;-0.90;86.28;99140.38;4932507;29;20037;-66
2023/01/02 05:30:24;;;;;;;;;;;;;;;-0.89;86.08;99139.34;4930881;29;19933;-66
2023/01/02 05:32:49;;;;;;;;;;;;;;;-0.92;86.19;99150.50;4930609;29;19961;-66
2023/01/02 05:35:17;;;;;;;;;;;;;;;-0.91;86.37;99151.34;4933215;29;19938;-67
2023/01/02 05:37:44;;;;;;;;;;;;;;;-0.91;85.75;99144.09;4929472;29;19935;-65
2023/01/02 05:40:10;;;;;;;;;;;;;;;-0.91;85.07;99129.88;4928955;29;19937;-67
2023/01/02 05:42:36;;;;;;;;;;;;;;;-0.94;84.41;99141.84;4929784;29;19931;-66
2023/01/02 05:45:02;;;;;;;;;;;;;;;-0.97;84.37;99162.94;4931369;29;20071;-66
2023/01/02 05:47:28;;;;;;;;;;;;;;;-1.01;84.17;99162.56;4930044;29;20292;-66
2023/01/02 05:49:53;;;;;;;;;;;;;;;-1.02;84.01;99174.28;4929116;29;19935;-65
2023/01/02 05:52:20;;;;;;;;;;;;;;;-1.03;83.87;99167.28;4928053;29;20029;-66
2023/01/02 05:54:46;;;;;;;;;;;;;;;-1.03;83.78;99186.06;4928185;29;20349;-66
2023/01/02 05:57:12;;;;;;;;;;;;;;;-1.18;83.54;99173.75;4930496;29;19931;-66
2023/01/02 05:59:37;;;;;;;;;;;;;;;-1.10;83.61;99186.09;4929956;29;20045;-66
2023/01/02 06:02:03;;;;;;;;;;;;;;;-1.09;83.18;99195.81;4928761;29;19937;-66
2023/01/02 06:04:29;;;;;;;;;;;;;;;-1.13;83.00;99210.69;4930156;29;20470;-66
2023/01/02 06:06:55;;;;;;;;;;;;;;;-1.11;82.39;99221.22;4930606;29;20029;-66
2023/01/02 06:09:22;;;;;;;;;;;;;;;-1.13;82.15;99223.28;4928066;28;19935;-66
2023/01/02 06:11:48;;;;;;;;;;;;;;;-1.11;81.99;99215.84;4929133;29;19941;-66
2023/01/02 06:14:13;;;;;;;;;;;;;;;-1.12;81.52;99236.47;4933720;29;19930;-65
2023/01/02 06:16:39;;;;;;;;;;;;;;;-1.13;81.59;99229.47;4931829;28;19938;-66
2023/01/02 06:19:05;;;;;;;;;;;;;;;-1.15;81.48;99234.22;4932086;28;19978;-66
2023/01/02 06:21:31;;;;;;;;;;;;;;;-1.15;81.49;99242.28;4930241;29;20482;-66
2023/01/02 06:23:57;;;;;;;;;;;;;;;-1.13;81.38;99239.38;4931192;29;19930;-66
2023/01/02 06:26:25;;;;;;;;;;;;;;;-1.12;80.87;99249.91;4932194;29;19978;-66
2023/01/02 06:28:51;;;;;;;;;;;;;;;-1.09;79.48;99252.19;4932714;29;19930;-66
2023/01/02 06:31:18;;;;;;;;;;;;;;;-1.06;78.20;99234.81;4929501;29;19935;-66
2023/01/02 06:33:44;;;;;;;;;;;;;;;-1.08;78.60;99269.94;4928951;29;20370;-66
2023/01/02 06:36:11;;;;;;;;;;;;;;;-1.09;79.00;99281.69;4929140;29;20310;-66
2023/01/02 06:38:37;;;;;;;;;;;;;;;-1.09;78.47;99289.75;4927832;29;19942;-65
2023/01/02 06:41:04;;;;;;;;;;;;;;;-1.09;78.58;99286.22;4927874;28;19930;-66
2023/01/02 06:43:31;;;;;;;;;;;;;;;-1.08;78.64;99285.19;4927780;29;19931;-65
2023/01/02 06:45:57;;;;;;;;;;;;;;;-1.03;78.36;99291.56;4927418;29;19930;-65
2023/01/02 06:48:23;;;;;;;;;;;;;;;-1.02;77.94;99306.66;4913201;29;20029;-66
2023/01/02 06:50:49;;;;;;;;;;;;;;;-1.02;77.89;99316.53;4916713;29;20049;-66
2023/01/02 06:53:15;;;;;;;;;;;;;;;-1.03;77.79;99304.16;4910685;29;19931;-65
2023/01/02 06:55:49;;;;;;;;;;;;;;;-1.02;77.91;99316.53;4913679;29;19930;-66
2023/01/02 06:58:15;;;;;;;;;;;;;;;-1.02;77.82;99311.16;4931903;29;20029;-65
2023/01/02 07:00:42;;;;;;;;;;;;;;;-1.01;77.78;99326.28;4916827;29;19930;-66
2023/01/02 07:03:08;;;;;;;;;;;;;;;-1.03;77.86;99329.16;4945790;28;19985;-65
2023/01/02 07:05:33;;;;;;;;;;;;;;;-1.01;78.01;99350.44;4949072;28;19930;-66
2023/01/02 07:07:59;;;;;;;;;;;;;;;-0.99;77.05;99348.34;4946486;28;19930;-66
2023/01/02 07:10:25;;;;;;;;;;;;;;;-1.01;76.93;99359.28;4945676;28;19930;-66
2023/01/02 07:12:51;;;;;;;;;;;;;;;-0.92;76.58;99356.41;4933854;28;19937;-65
2023/01/02 07:15:17;;;;;;;;;;;;;;;-0.93;76.18;99355.56;4931013;29;20056;-65
2023/01/02 07:17:44;;;;;;;;;;;;;;;-0.95;75.76;99365.69;4929734;29;19942;-65
2023/01/02 07:20:10;;;;;;;;;;;;;;;-0.95;75.28;99365.69;4927354;29;19935;-65
2023/01/02 07:22:36;;;;;;;;;;;;;;;-0.96;74.84;99363.19;4930779;29;20561;-66
2023/01/02 07:25:02;;;;;;;;;;;;;;;-0.95;74.96;99376.41;4926782;29;19935;-65
2023/01/02 07:27:30;;;;;;;;;;;;;;;-0.93;73.96;99387.75;4928832;28;19930;-70
2023/01/02 07:29:55;;;;;;;;;;;;;;;-0.93;73.21;99368.97;4969042;28;19941;-66
2023/01/02 07:32:21;;;;;;;;;;;;;;;-0.90;73.40;99378.47;4965791;28;19961;-65
2023/01/02 07:34:48;;;;;;;;;;;;;;;-0.90;73.69;99405.31;4929155;29;19969;-66
2023/01/02 07:37:14;;;;;;;;;;;;;;;-0.91;72.62;99395.63;4928004;29;20047;-65
2023/01/02 07:39:39;;;;;;;;;;;;;;;-0.92;72.57;99404.72;4928331;29;20438;-66
2023/01/02 07:42:05;;;;;;;;;;;;;;;-0.90;72.21;99397.28;4929243;29;19966;-66
2023/01/02 07:44:31;;;;;;;;;;;;;;;-0.90;72.40;99408.81;4929943;28;19989;-65
2023/01/02 07:46:57;;;;;;;;;;;;;;;-0.84;72.57;99409.84;4926627;29;19930;-66
2023/01/02 07:49:23;;;;;;;;;;;;;;;-0.84;72.21;99403.66;4930891;29;20200;-66
2023/01/02 07:51:50;;;;;;;;;;;;;;;-0.84;71.80;99406.34;4928782;29;19938;-66
2023/01/02 07:54:15;;;;;;;;;;;;;;;-0.83;71.38;99399.94;4930181;29;19941;-71
2023/01/02 07:56:41;;;;;;;;;;;;;;;-0.84;71.50;99407.16;4926944;29;20251;-70
2023/01/02 07:59:07;;;;;;;;;;;;;;;-0.82;71.05;99404.28;4928999;29;19943;-71
2023/01/02 08:01:33;;;;;;;;;;;;;;;-0.82;70.95;99415.00;4928757;29;19990;-71
2023/01/02 08:03:59;;;;;;;;;;;;;;;-0.82;70.58;99412.34;4927105;29;20318;-71
2023/01/02 08:06:26;;;;;;;;;;;;;;;-0.81;69.87;99413.97;4927205;29;19931;-71
2023/01/02 08:08:53;;;;;;;;;;;;;;;-0.80;68.83;99410.25;4927286;29;20870;-71
2023/01/02 08:11:19;;;;;;;;;;;;;;;-0.81;69.20;99425.53;4927440;29;19937;-71
2023/01/02 08:13:45;;;;;;;;;;;;;;;-0.81;69.40;99408.59;4925268;29;19969;-71
2023/01/02 08:16:11;;;;;;;;;;;;;;;-0.76;69.41;99420.38;4928289;29;19953;-71
2023/01/02 08:18:37;;;;;;;;;;;;;;;-0.73;69.33;99427.16;4926982;29;19935;-70
2023/01/02 08:21:03;;;;;;;;;;;;;;;-0.70;68.81;99428.63;4926944;29;20013;-70
2023/01/02 08:23:29;;;;;;;;;;;;;;;-0.68;68.44;99423.84;4926180;29;20483;-70
2023/01/02 08:25:58;;;;;;;;;;;;;;;-0.68;68.19;99437.28;4927636;29;19954;-71
2023/01/02 08:28:23;;;;;;;;;;;;;;;-0.65;68.19;99450.28;4927906;29;20025;-71
2023/01/02 08:30:49;;;;;;;;;;;;;;;-0.56;68.05;99438.28;4927075;29;20037;-70
2023/01/02 08:33:15;;;;;;;;;;;;;;;0.33;66.14;99445.78;4925912;29;20322;-71
2023/01/02 08:35:40;;;;;;;;;;;;;;;1.29;61.33;99438.63;4927324;29;19952;-71
2023/01/02 08:38:06;;;;;;;;;;;;;;;1.92;58.68;99448.28;4940922;28;19930;-71
2023/01/02 08:40:32;;;;;;;;;;;;;;;2.53;57.74;99455.59;4950145;28;20032;-71
2023/01/02 08:42:59;;;;;;;;;;;;;;;3.03;56.15;99438.19;4949960;28;19953;-71
2023/01/02 08:45:24;;;;;;;;;;;;;;;3.49;55.39;99440.28;4950830;28;20413;-71
2023/01/02 08:47:50;;;;;;;;;;;;;;;3.74;53.20;99442.72;4946461;28;20073;-71
2023/01/02 08:50:16;;;;;;;;;;;;;;;3.93;53.06;99448.78;4946233;28;19937;-70
2023/01/02 08:52:42;;;;;;;;;;;;;;;4.16;51.79;99455.22;4946241;28;20102;-70
2023/01/02 08:55:08;;;;;;;;;;;;;;;4.18;51.56;99449.53;4910311;29;19938;-72
2023/01/02 08:57:34;;;;;;;;;;;;;;;3.95;50.85;99459.38;4929552;29;19945;-71
2023/01/02 09:00:01;;;;;;;;;;;;;;;3.66;51.47;99454.72;4934396;28;19930;-70
2023/01/02 09:02:27;;;;;;;;;;;;;;;3.90;51.29;99462.81;4946660;28;19930;-70
2023/01/02 09:04:53;;;;;;;;;;;;;;;4.04;50.84;99463.34;4947407;28;20002;-71
2023/01/02 09:07:18;;;;;;;;;;;;;;;4.24;50.39;99457.53;4947106;28;19930;-70
2023/01/02 09:09:44;;;;;;;;;;;;;;;4.43;49.62;99468.16;4946752;28;19937;-71
2023/01/02 09:12:10;;;;;;;;;;;;;;;4.37;48.42;99452.88;4946508;28;19938;-66
2023/01/02 09:15:08;;;;;;;;;;;;;;;4.56;48.96;99466.22;4942008;28;20033;-67
2023/01/02 09:17:36;;;;;;;;;;;;;;;4.77;47.94;99478.25;4937494;28;20493;-67
2023/01/02 09:20:02;;;;;;;;;;;;;;;4.97;47.59;99480.47;4946541;28;20025;-71
2023/01/02 09:22:28;;;;;;;;;;;;;;;4.86;47.17;99476.78;4945082;28;19973;-71
2023/01/02 09:24:54;;;;;;;;;;;;;;;4.39;47.84;99486.78;4950119;28;19973;-71
2023/01/02 09:27:20;;;;;;;;;;;;;;;4.37;47.84;99490.78;4946306;28;20842;-67
2023/01/02 09:29:46;;;;;;;;;;;;;;;4.40;48.10;99498.41;4938855;28;20033;-67
2023/01/02 09:32:13;;;;;;;;;;;;;;;4.42;47.25;99498.19;4924025;28;19973;-72
2023/01/02 09:34:39;;;;;;;;;;;;;;;4.35;47.99;99482.91;4951483;28;19976;-66
2023/01/02 09:37:07;;;;;;;;;;;;;;;4.67;47.38;99504.06;4953987;28;20036;-71
2023/01/02 09:39:33;;;;;;;;;;;;;;;4.79;46.40;99493.19;4952042;28;19930;-72
2023/01/02 09:42:00;;;;;;;;;;;;;;;5.15;46.61;99511.94;4958584;28;19961;-72
2023/01/02 09:44:33;;;;;;;;;;;;;;;5.74;44.72;99521.50;4956776;28;19941;-72
2023/01/02 09:47:02;;;;;;;;;;;;;;;5.76;44.14;99510.41;4954055;28;19930;-72
2023/01/02 09:49:31;;;;;;;;;;;;;;;5.69;44.45;99507.88;4959621;28;20058;-72
2023/01/02 09:51:57;;;;;;;;;;;;;;;6.00;44.08;99505.59;4958878;28;19974;-71
2023/01/02 09:54:25;;;;;;;;;;;;;;;6.30;42.58;99522.53;4957332;28;19972;-67
2023/01/02 09:57:02;;;;;;;;;;;;;;;6.19;42.15;99518.88;4951408;28;20425;-68
2023/01/02 09:59:31;;;;;;;;;;;;;;;5.24;43.68;99523.22;4939219;28;20017;-66
2023/01/02 10:02:02;;;;;;;;;;;;;;;4.87;44.03;99539.91;4951911;28;20646;-67
2023/01/02 10:04:44;;;;;;;;;;;;;;;4.86;45.40;99528.25;4952125;28;19970;-67
2023/01/02 10:07:12;;;;;;;;;;;;;;;5.66;43.61;99532.78;4954889;28;20029;-67
2023/01/02 10:09:48;;;;;;;;;;;;;;;6.07;42.27;99530.66;4950400;28;19941;-66
2023/01/02 10:12:18;;;;;;;;;;;;;;;5.74;42.26;99529.63;4953751;28;19941;-67
2023/01/02 10:14:52;;;;;;;;;;;;;;;5.79;43.13;99518.03;4949080;28;20335;-67
2023/01/02 10:17:18;;;;;;;;;;;;;;;5.82;42.49;99529.22;4948155;28;19938;-66
2023/01/02 10:19:52;;;;;;;;;;;;;;;5.75;42.48;99530.47;4951442;28;19930;-66
2023/01/02 10:22:20;;;;;;;;;;;;;;;6.14;43.06;99537.81;4951221;28;19935;-66
2023/01/02 10:24:47;;;;;;;;;;;;;;;6.70;42.07;99547.69;4947748;28;19941;-67
2023/01/02 10:27:16;;;;;;;;;;;;;;;6.65;40.70;99549.28;4951445;28;20053;-67
2023/01/02 10:29:45;;;;;;;;;;;;;;;6.72;40.60;99559.94;4950766;28;20006;-67
2023/01/02 10:32:13;;;;;;;;;;;;;;;6.84;40.58;99561.72;4936089;28;19930;-67
2023/01/02 10:34:41;;;;;;;;;;;;;;;6.75;39.79;99569.50;4956310;28;19930;-67
2023/01/02 10:37:13;;;;;;;;;;;;;;;6.92;39.78;99566.69;4955251;28;19934;-67
2023/01/02 10:39:40;;;;;;;;;;;;;;;6.94;39.68;99575.38;4949517;28;19962;-66
2023/01/02 10:42:09;;;;;;;;;;;;;;;7.06;39.94;99577.97;4951895;28;19937;-66
2023/01/02 10:44:36;;;;;;;;;;;;;;;7.17;39.25;99584.31;4952367;28;20052;-66
2023/01/02 10:47:10;;;;;;;;;;;;;;;7.10;39.46;99589.97;4955655;28;19930;-66
2023/01/02 10:49:37;;;;;;;;;;;;;;;6.43;40.47;99587.31;4958810;28;19930;-69
2023/01/02 10:52:07;;;;;;;;;;;;;;;5.96;42.45;99589.38;4952819;28;20332;-70
2023/01/02 10:54:46;;;;;;;;;;;;;;;5.44;42.98;99578.81;4933615;28;20343;-70
2023/01/02 10:57:19;;;;;;;;;;;;;;;4.88;43.90;99584.91;4950663;28;20017;-70
2023/01/02 11:00:15;;;;;;;;;;;;;;;4.51;45.13;99597.75;4953077;28;19930;-70
2023/01/02 11:02:53;;;;;;;;;;;;;;;4.83;44.66;99604.56;4950094;28;20330;-70
2023/01/02 11:05:20;;;;;;;;;;;;;;;4.92;44.98;99602.34;4952885;28;19938;-71
2023/01/02 11:07:50;;;;;;;;;;;;;;;4.70;45.35;99619.22;4953517;28;19973;-71
2023/01/02 11:10:36;;;;;;;;;;;;;;;3.86;46.04;99620.41;4952062;28;19956;-70
2023/01/02 11:13:02;;;;;;;;;;;;;;;3.17;47.85;99632.50;4953535;28;19941;-70
2023/01/02 11:15:32;;;;;;;;;;;;;;;2.58;49.22;99651.97;4954260;28;19930;-71
2023/01/02 11:17:57;;;;;;;;;;;;;;;2.12;50.58;99661.16;4957092;28;19931;-71
2023/01/02 11:20:46;;;;;;;;;;;;;;;1.79;52.16;99658.72;4956778;28;19931;-70
2023/01/02 11:23:22;;;;;;;;;;;;;;;1.84;52.38;99665.13;4954865;28;19934;-70
2023/01/02 11:25:51;;;;;;;;;;;;;;;2.00;51.83;99673.69;4954216;28;19978;-66
2023/01/02 11:28:19;;;;;;;;;;;;;;;2.10;51.84;99706.41;4953313;28;20397;-66
2023/01/02 11:30:49;;;;;;;;;;;;;;;1.97;51.77;99663.34;4958340;28;19937;-66
2023/01/02 11:33:19;;;;;;;;;;;;;;;2.34;51.49;99689.59;4957027;28;19953;-66
2023/01/02 11:35:46;;;;;;;;;;;;;;;2.62;51.30;99682.84;4956276;28;20310;-66
2023/01/02 11:38:16;;;;;;;;;;;;;;;2.79;50.70;99686.59;4955253;28;19930;-65
2023/01/02 11:40:56;;;;;;;;;;;;;;;2.85;50.68;99679.47;4953720;28;20032;-65
2023/01/02 11:43:47;;;;;;;;;;;;;;;2.61;50.87;99700.91;4951332;28;19937;-66
2023/01/02 11:46:28;;;;;;;;;;;;;;;2.09;51.91;99710.16;4953755;28;20315;-65
2023/01/02 11:49:02;;;;;;;;;;;;;;;1.77;52.52;99691.31;4948509;28;19961;-66
2023/01/02 11:52:05;;;;;;;;;;;;;;;1.55;53.56;99702.44;4953627;28;19930;-66
2023/01/02 11:54:37;;;;;;;;;;;;;;;1.62;53.58;99701.59;4952743;28;19930;-66
2023/01/02 11:57:10;;;;;;;;;;;;;;;2.04;52.41;99712.69;4939432;28;19930;-66
2023/01/02 11:59:46;;;;;;;;;;;;;;;2.12;52.02;99716.97;4958054;28;19930;-65
2023/01/02 12:02:44;;;;;;;;;;;;;;;2.63;50.47;99700.69;4951545;28;19937;-65
2023/01/02 12:05:14;;;;;;;;;;;;;;;3.45;49.58;99693.22;4951792;28;19937;-66
2023/01/02 12:07:42;;;;;;;;;;;;;;;4.44;47.12;99710.75;4954288;28;20081;-66
2023/01/02 12:10:16;;;;;;;;;;;;;;;5.06;45.47;99719.38;4952084;28;19930;-67
2023/01/02 12:12:51;;;;;;;;;;;;;;;5.14;44.67;99715.47;4954927;28;19946;-67
2023/01/02 12:15:35;;;;;;;;;;;;;;;5.12;44.51;99718.41;4953177;28;19930;-66
2023/01/02 12:18:07;;;;;;;;;;;;;;;5.07;44.80;99727.28;4953006;28;19926;-66
2023/01/02 12:20:40;;;;;;;;;;;;;;;5.07;44.69;99700.19;4949276;28;19977;-66
2023/01/02 12:23:24;;;;;;;;;;;;;;;4.89;44.64;99730.97;4951333;28;19941;-66
2023/01/02 12:25:57;;;;;;;;;;;;;;;4.92;45.58;99737.81;4949277;28;20293;-66
2023/01/02 12:28:44;;;;;;;;;;;;;;;5.20;45.16;99731.59;4954313;28;19934;-66
2023/01/02 12:32:07;;;;;;;;;;;;;;;4.53;45.13;99739.13;4952221;28;19953;-67
2023/01/02 12:34:47;;;;;;;;;;;;;;;4.01;46.64;99747.13;4931682;28;19937;-66
2023/01/02 12:37:21;;;;;;;;;;;;;;;3.47;48.16;99766.81;4952486;28;19953;-66
2023/01/02 12:40:08;;;;;;;;;;;;;;;2.31;50.70;99774.50;4953909;28;20326;-66
2023/01/02 12:42:49;;;;;;;;;;;;;;;1.35;53.28;99774.50;4936779;28;20802;-66
2023/01/02 12:45:24;;;;;;;;;;;;;;;0.69;55.15;99769.97;4953797;28;19977;-66
2023/01/02 12:48:07;;;;;;;;;;;;;;;0.19;56.97;99754.28;4953200;28;20302;-66
2023/01/02 12:50:58;;;;;;;;;;;;;;;-0.10;58.37;99767.09;4952185;28;19930;-66
2023/01/02 12:53:32;;;;;;;;;;;;;;;-0.39;59.81;99771.84;4936805;28;19930;-66
2023/01/02 12:56:04;;;;;;;;;;;;;;;-0.55;60.71;99780.22;4955333;28;19957;-66
2023/01/02 12:58:35;;;;;;;;;;;;;;;-0.65;61.36;99778.78;4954335;28;20042;-65
2023/01/02 13:01:14;;;;;;;;;;;;;;;-0.70;61.74;99788.47;4956107;28;19930;-65
2023/01/02 13:03:44;;;;;;;;;;;;;;;-0.87;61.88;99791.50;4950437;28;19930;-65
2023/01/02 13:06:12;;;;;;;;;;;;;;;-0.98;62.81;99789.38;4955323;28;20379;-65